Time;durP1;ratioP1;P1;durP2;ratioP2;P2;SDS_P1;SDS_P2;PMS_P1;PMS_P2;Temp;Humidity;BMP_temperature;BMP_pressure;BME280_temperature;BME280_humidity;BME280_pressure;Samples;Min_cycle;Max_cycle;Signal;HPM_P1;HPM_P2
2022/11/23 00:08:07;;;;;;;5.45;3.90;;;;;;;20.44;56.99;98873.44;20650445;28;20528;-79
2022/11/23 00:18:14;;;;;;;3.97;3.17;;;;;;;20.40;57.17;98872.91;20657884;28;20124;-78
2022/11/23 00:28:14;;;;;;;4.75;3.30;;;;;;;20.38;56.78;98856.47;20611438;28;20454;-78
2022/11/23 00:38:15;;;;;;;5.28;3.25;;;;;;;20.38;56.66;98853.84;20652625;28;20096;-79
2022/11/23 00:48:15;;;;;;;5.18;3.10;;;;;;;20.36;56.86;98868.09;20630232;28;20043;-78
2022/11/23 00:58:15;;;;;;;4.70;2.70;;;;;;;20.35;56.70;98861.19;20658126;28;20057;-78
2022/11/23 01:08:16;;;;;;;4.05;2.90;;;;;;;20.35;56.58;98858.56;20680655;28;20052;-79
2022/11/23 01:18:16;;;;;;;3.47;2.67;;;;;;;20.34;56.32;98856.94;20669896;28;20034;-78
2022/11/23 01:28:16;;;;;;;4.10;2.92;;;;;;;20.31;56.79;98843.09;20670211;28;20042;-78
2022/11/23 01:38:17;;;;;;;3.53;2.70;;;;;;;20.31;56.71;98842.25;20660773;28;20042;-78
2022/11/23 01:48:29;;;;;;;3.40;2.60;;;;;;;20.31;56.43;98840.47;20660574;28;20038;-79
2022/11/23 01:58:33;;;;;;;3.80;2.80;;;;;;;20.31;56.39;98826.50;20657612;28;20605;-79
2022/11/23 02:08:35;;;;;;;3.25;2.60;;;;;;;20.30;56.22;98823.06;20639304;28;20197;-79
2022/11/23 02:18:39;;;;;;;2.88;2.35;;;;;;;20.31;56.37;98818.59;20664557;28;20092;-78
2022/11/23 02:28:48;;;;;;;2.50;2.30;;;;;;;20.30;56.10;98832.75;20660604;28;20046;-79
2022/11/23 02:38:48;;;;;;;2.90;2.30;;;;;;;20.27;56.44;98812.81;20670782;28;20125;-79
2022/11/23 02:48:49;;;;;;;2.55;2.22;;;;;;;20.26;56.40;98826.97;20663163;28;20554;-79
2022/11/23 02:58:49;;;;;;;2.97;2.30;;;;;;;20.25;56.27;98809.53;20667310;28;20038;-79
2022/11/23 03:08:49;;;;;;;3.03;2.30;;;;;;;20.26;56.23;98823.50;20655161;28;20050;-77
2022/11/23 03:18:50;;;;;;;2.90;2.42;;;;;;;20.27;56.48;98840.94;20659533;28;20158;-77
2022/11/23 03:28:51;;;;;;;2.70;2.30;;;;;;;20.27;56.00;98817.28;20657747;28;20041;-78
2022/11/23 03:38:52;;;;;;;2.30;2.10;;;;;;;20.28;56.03;98830.25;20662081;28;20041;-79
2022/11/23 03:48:52;;;;;;;3.03;2.10;;;;;;;20.26;56.20;98818.25;20657627;28;20042;-78
2022/11/23 03:58:52;;;;;;;2.15;1.95;;;;;;;20.26;56.01;98808.56;20648721;28;20409;-78
2022/11/23 04:08:53;;;;;;;2.00;1.80;;;;;;;20.27;56.50;98822.53;20650881;28;20081;-78
2022/11/23 04:18:53;;;;;;;2.60;2.03;;;;;;;20.27;56.08;98814.66;20647811;28;20178;-79
2022/11/23 04:28:54;;;;;;;2.03;1.77;;;;;;;20.26;56.00;98828.75;20648939;28;20039;-78
2022/11/23 04:38:56;;;;;;;2.42;1.73;;;;;;;20.23;55.88;98808.84;20651155;28;20374;-78
2022/11/23 04:48:56;;;;;;;2.10;1.90;;;;;;;20.25;55.65;98829.72;20647585;28;20568;-76
2022/11/23 04:58:57;;;;;;;3.50;1.80;;;;;;;20.34;56.16;98833.28;20628087;28;20081;-77
2022/11/23 05:08:57;;;;;;;2.60;2.08;;;;;;;20.39;56.60;98834.47;20630342;28;20054;-86
2022/11/23 05:18:58;;;;;;;29.35;5.10;;;;;;;20.50;57.42;98822.06;20635144;28;20042;-84
2022/11/23 05:28:58;;;;;;;25.38;4.25;;;;;;;20.59;56.82;98798.31;20641883;28;20062;-79
2022/11/23 05:39:04;;;;;;;26.73;5.53;;;;;;;20.68;56.41;98800.97;20659807;28;20404;-92
2022/11/23 05:49:05;;;;;;;21.20;6.03;;;;;;;20.77;56.56;98795.63;20660806;28;20046;-78
2022/11/23 05:59:06;;;;;;;20.58;5.50;;;;;;;20.82;56.94;98792.56;20654750;28;20053;-75
2022/11/23 06:09:07;;;;;;;19.83;5.05;;;;;;;20.79;55.23;98819.19;20618954;28;20042;-75
2022/11/23 06:19:07;;;;;;;20.73;5.18;;;;;;;20.82;54.50;98820.69;20657962;28;20512;-77
2022/11/23 06:29:07;;;;;;;20.02;5.53;;;;;;;20.89;53.71;98826.97;20639683;28;20046;-74
2022/11/23 06:39:09;;;;;;;16.08;4.68;;;;;;;20.90;54.55;98832.06;20652723;28;20057;-73
2022/11/23 06:49:09;;;;;;;16.77;4.50;;;;;;;20.93;54.72;98834.41;20657478;28;20039;-78
2022/11/23 06:59:09;;;;;;;14.98;4.93;;;;;;;21.01;54.52;98822.28;20647227;28;20042;-81
2022/11/23 07:09:10;;;;;;;12.40;4.32;;;;;;;21.07;53.53;98845.34;20635296;28;20049;-77
2022/11/23 07:19:10;;;;;;;10.73;4.00;;;;;;;21.15;54.61;98853.25;20646543;28;20042;-77
2022/11/23 07:29:11;;;;;;;10.18;3.58;;;;;;;21.20;53.93;98855.44;20648169;28;20046;-79
2022/11/23 07:39:11;;;;;;;7.00;3.33;;;;;;;21.24;54.30;98849.72;20545581;28;20133;-77
2022/11/23 07:49:11;;;;;;;7.63;3.30;;;;;;;21.28;53.82;98847.59;20545769;28;20109;-76
2022/11/23 07:59:12;;;;;;;10.27;3.47;;;;;;;21.31;53.92;98851.72;20546869;28;20733;-78
2022/11/23 08:09:12;;;;;;;165.02;126.72;;;;;;;21.35;53.81;98858.31;20537167;28;21976;-79
2022/11/23 08:19:12;;;;;;;89.03;65.22;;;;;;;21.41;54.17;98869.03;20568592;28;20134;-77
2022/11/23 08:29:13;;;;;;;123.50;53.35;;;;;;;21.41;52.55;98871.69;20584746;28;20073;-78
2022/11/23 08:39:15;;;;;;;55.13;33.88;;;;;;;21.30;53.46;98869.31;20562214;28;20911;-74
2022/11/23 08:49:15;;;;;;;60.13;33.95;;;;;;;21.43;54.21;98868.88;20574138;28;20337;-81
2022/11/23 08:59:16;;;;;;;49.70;30.75;;;;;;;21.38;54.59;98877.25;20565499;28;20050;-81
2022/11/23 09:09:16;;;;;;;41.17;27.60;;;;;;;21.38;54.03;98889.59;20577656;28;20054;-80
2022/11/23 09:19:17;;;;;;;38.13;25.20;;;;;;;21.34;53.33;98875.91;20565059;28;20092;-79
2022/11/23 09:29:17;;;;;;;36.70;24.00;;;;;;;21.30;53.18;98871.97;20574164;28;20046;-81
2022/11/23 09:39:17;;;;;;;35.10;23.95;;;;;;;21.25;53.47;98880.31;20565733;28;20101;-78
2022/11/23 09:49:20;;;;;;;35.63;22.33;;;;;;;21.23;53.36;98878.81;20572567;28;20058;-79
2022/11/23 09:59:30;;;;;;;33.03;20.27;;;;;;;21.20;53.89;98876.50;20624225;28;20049;-79
2022/11/23 10:09:58;;;;;;;29.52;17.90;;;;;;;21.18;53.52;98879.28;20664863;28;20408;-78
2022/11/23 10:20:47;;;;;;;26.80;17.75;;;;;;;21.21;53.36;98872.88;20659288;28;20453;-80
2022/11/23 10:30:55;;;;;;;27.10;14.48;;;;;;;21.15;52.46;98868.25;20650994;28;20061;-79
2022/11/23 10:41:04;;;;;;;16.80;11.05;;;;;;;21.01;50.62;98867.84;20660882;28;20052;-78
2022/11/23 10:51:20;;;;;;;18.45;10.27;;;;;;;21.04;51.95;98870.13;20656405;28;20137;-79
2022/11/23 11:01:23;;;;;;;17.15;8.95;;;;;;;21.06;51.61;98867.38;20649540;28;20133;-75
2022/11/23 11:11:27;;;;;;;35.95;9.35;;;;;;;21.22;51.59;98861.38;20635937;28;20042;-80
2022/11/23 11:21:39;;;;;;;55.83;10.68;;;;;;;21.20;51.99;98858.06;20642331;28;20112;-82
2022/11/23 11:31:55;;;;;;;10.90;5.00;;;;;;;20.42;47.07;98870.13;20655132;28;20049;-79
2022/11/23 11:41:59;;;;;;;6.10;4.10;;;;;;;17.91;41.28;98874.75;20642912;28;20509;-79
2022/11/23 11:52:18;;;;;;;7.32;3.60;;;;;;;19.52;43.76;98865.56;20634258;28;20050;-81
2022/11/23 12:02:24;;;;;;;11.10;4.03;;;;;;;19.91;47.53;98869.78;20648863;28;20050;-83
2022/11/23 12:12:24;;;;;;;8.13;4.63;;;;;;;20.12;48.20;98877.41;20651746;28;20046;-83
2022/11/23 12:22:59;;;;;;;6.47;4.40;;;;;;;19.46;41.12;98868.75;20644228;28;20528;-83
2022/11/23 12:33:24;;;;;;;7.68;3.88;;;;;;;18.88;39.69;98867.91;20648044;28;20046;-81
2022/11/23 12:43:36;;;;;;;5.45;3.15;;;;;;;19.69;43.75;98866.59;20618191;28;20129;-79
2022/11/23 12:53:51;;;;;;;10.52;3.33;;;;;;;19.93;47.54;98863.44;20654333;28;20054;-81
2022/11/23 13:04:29;;;;;;;7.82;3.72;;;;;;;20.09;49.33;98860.16;20656305;28;20041;-79
2022/11/23 13:14:46;;;;;;;7.30;3.50;;;;;;;20.21;50.47;98868.63;20646153;28;20102;-80
2022/11/23 13:25:13;;;;;;;11.65;3.83;;;;;;;20.31;49.88;98876.44;20661808;28;20045;-83
2022/11/23 13:35:22;;;;;;;13.15;4.85;;;;;;;20.38;51.83;98877.50;20666290;28;20057;-83
2022/11/23 13:45:26;;;;;;;13.25;4.18;;;;;;;20.47;51.88;98889.75;20672628;28;20509;-85
2022/11/23 13:55:35;;;;;;;7.22;3.50;;;;;;;20.56;52.12;98888.00;20649357;28;20056;-80
2022/11/23 14:05:47;;;;;;;7.03;3.88;;;;;;;20.61;52.69;98885.75;20642258;28;20567;-80
2022/11/23 14:15:59;;;;;;;8.03;3.80;;;;;;;20.64;52.42;98889.88;20663857;28;20070;-76
2022/11/23 14:26:12;;;;;;;8.40;3.75;;;;;;;20.67;52.39;98888.78;20656067;28;20046;-81
2022/11/23 14:36:30;;;;;;;9.75;4.68;;;;;;;20.70;52.34;98899.81;20653605;28;20034;-83
2022/11/23 14:46:30;;;;;;;10.82;4.90;;;;;;;20.72;51.98;98902.31;20645946;28;20052;-83
2022/11/23 14:56:32;;;;;;;7.80;4.68;;;;;;;20.69;52.05;98910.47;20660806;28;20039;-85
2022/11/23 15:06:37;;;;;;;8.60;4.70;;;;;;;20.69;52.24;98918.34;20653762;28;20509;-83
2022/11/23 15:16:41;;;;;;;10.90;4.82;;;;;;;20.69;52.50;98934.97;20653125;28;20042;-83
2022/11/23 15:26:43;;;;;;;9.18;4.45;;;;;;;20.64;50.72;98932.78;20656642;28;20512;-83
2022/11/23 15:36:45;;;;;;;7.78;4.20;;;;;;;20.55;51.97;98932.88;20633669;28;20057;-81
2022/11/23 15:46:48;;;;;;;7.95;4.28;;;;;;;20.56;51.83;98939.78;20651016;28;20061;-82
2022/11/23 15:56:51;;;;;;;8.63;4.23;;;;;;;20.53;52.30;98940.06;20648307;28;20053;-82
2022/11/23 16:06:51;;;;;;;;;;;;;;;20.50;51.97;98937.75;20646613;28;20074;-77
2022/11/23 16:17:22;;;;;;;6.93;3.80;;;;;;;20.68;51.90;98957.00;20657723;28;19925;-80
2022/11/23 16:27:24;;;;;;;7.93;3.97;;;;;;;20.76;51.84;98951.84;20652258;28;20502;-78
2022/11/23 16:37:25;;;;;;;14.57;3.92;;;;;;;20.76;52.56;98970.25;20658103;28;20052;-78
2022/11/23 16:47:27;;;;;;;7.47;3.80;;;;;;;20.78;52.47;98972.72;20638350;28;20041;-81
2022/11/23 16:57:29;;;;;;;5.82;3.67;;;;;;;20.79;53.00;98983.09;20580894;28;20042;-79
2022/11/23 17:07:30;;;;;;;7.07;3.70;;;;;;;20.81;52.87;98982.13;20605606;28;20090;-84
2022/11/23 17:17:31;;;;;;;10.88;3.78;;;;;;;20.80;53.76;98983.94;20640381;28;20042;-80
2022/11/23 17:27:34;;;;;;;8.15;3.80;;;;;;;20.82;53.57;98987.22;20610577;28;20169;-78
2022/11/23 17:37:35;;;;;;;;;;;;;;;20.82;53.60;98992.50;20651007;28;20050;-83
2022/11/23 17:47:37;;;;;;;7.97;3.90;;;;;;;20.86;53.67;98993.00;20669302;28;19971;-84
2022/11/23 17:57:37;;;;;;;8.85;4.00;;;;;;;20.87;54.44;98999.94;20660301;28;20053;-87
2022/11/23 18:07:42;;;;;;;10.05;4.97;;;;;;;20.84;54.71;99006.34;20662178;28;20054;-83
2022/11/23 18:17:42;;;;;;;8.38;4.40;;;;;;;20.89;54.40;99014.59;20651012;28;20060;-73
2022/11/23 18:27:43;;;;;;;10.48;4.57;;;;;;;20.92;54.86;99010.81;20669004;28;20417;-77
2022/11/23 18:37:43;;;;;;;11.75;5.25;;;;;;;20.90;54.38;99011.00;20665752;28;20421;-80
2022/11/23 18:47:43;;;;;;;8.15;4.38;;;;;;;20.89;54.74;99011.97;20659780;28;20042;-89
2022/11/23 18:57:44;;;;;;;7.97;4.10;;;;;;;20.87;54.84;99013.94;20640413;28;20128;-78
2022/11/23 19:07:45;;;;;;;11.90;4.90;;;;;;;20.86;54.55;99020.16;20644265;28;20114;-87
2022/11/23 19:17:47;;;;;;;9.23;4.10;;;;;;;20.89;54.33;99017.22;20663694;28;20050;-90
2022/11/23 19:27:50;;;;;;;7.33;4.10;;;;;;;20.94;54.67;99027.31;20668693;28;20147;-83
2022/11/23 19:37:51;;;;;;;7.33;4.03;;;;;;;20.93;54.52;99023.84;20658124;28;20072;-85
2022/11/23 19:47:53;;;;;;;14.40;4.20;;;;;;;20.97;54.34;99029.66;20645074;28;20574;-83
2022/11/23 19:57:54;;;;;;;8.40;4.00;;;;;;;20.98;53.71;99036.53;20651666;28;20048;-84
2022/11/23 20:07:54;;;;;;;10.13;4.35;;;;;;;20.95;53.96;99050.00;20655296;28;20054;-81
2022/11/23 20:17:55;;;;;;;9.35;4.10;;;;;;;20.89;54.25;99047.97;20682581;28;20050;-82
2022/11/23 20:27:56;;;;;;;12.93;4.53;;;;;;;20.96;54.73;99062.19;20648839;28;20543;-83
2022/11/23 20:37:56;;;;;;;9.27;4.60;;;;;;;20.91;54.57;99070.53;20649180;28;20110;-82
2022/11/23 20:48:02;;;;;;;10.85;5.32;;;;;;;20.83;54.64;99088.03;20615131;28;20064;-78
2022/11/23 20:58:05;;;;;;;6.63;4.78;;;;;;;20.66;55.09;99094.88;20643341;28;20060;-79
2022/11/23 21:08:05;;;;;;;6.85;4.72;;;;;;;20.65;55.27;99099.31;20658834;28;20061;-81
2022/11/23 21:18:06;;;;;;;9.20;5.30;;;;;;;20.63;55.26;99096.00;20670794;28;20070;-82
2022/11/23 21:28:06;;;;;;;8.60;5.10;;;;;;;20.60;55.41;99104.19;20666088;28;20157;-83
2022/11/23 21:38:06;;;;;;;8.05;4.90;;;;;;;20.59;55.38;99110.41;20677195;28;20057;-81
2022/11/23 21:48:07;;;;;;;7.30;4.75;;;;;;;20.57;55.55;99115.81;20658088;28;20058;-82
2022/11/23 21:58:07;;;;;;;8.13;4.40;;;;;;;20.56;55.38;99127.31;20613396;28;20068;-81
2022/11/23 22:08:08;;;;;;;7.63;4.80;;;;;;;20.61;55.34;99124.25;20646748;28;20350;-80
2022/11/23 22:18:08;;;;;;;8.40;4.38;;;;;;;20.59;55.31;99129.66;20656158;28;20500;-82
2022/11/23 22:28:09;;;;;;;14.25;4.90;;;;;;;20.62;55.43;99121.47;20660617;28;20053;-83
2022/11/23 22:38:09;;;;;;;6.35;4.47;;;;;;;20.61;55.13;99134.78;20661500;28;20501;-83
2022/11/23 22:48:10;;;;;;;6.60;4.50;;;;;;;20.59;56.03;99140.19;20664077;28;20139;-83
2022/11/23 22:58:10;;;;;;;4.50;3.60;;;;;;;20.61;56.02;99140.84;20671050;28;20034;-84
2022/11/23 23:08:11;;;;;;;6.95;3.88;;;;;;;20.62;55.65;99152.22;20659798;28;20123;-82
2022/11/23 23:18:15;;;;;;;6.40;4.03;;;;;;;20.63;55.60;99159.13;20652776;28;20568;-84
2022/11/23 23:28:15;;;;;;;7.15;4.10;;;;;;;20.62;55.91;99163.56;20663109;28;20050;-84
2022/11/23 23:38:16;;;;;;;4.60;3.47;;;;;;;20.58;56.02;99171.88;20646015;28;20910;-84
2022/11/23 23:48:16;;;;;;;4.43;3.42;;;;;;;20.58;56.07;99171.88;20656144;28;20133;-81
2022/11/23 23:58:17;;;;;;;5.57;3.65;;;;;;;20.59;56.28;99178.78;20653767;28;20053;-81
